createdAt,value
2018-02-10T00:01:44.046Z,68.30
2018-02-10T00:04:11.619Z,78.20
2018-02-10T00:06:39.170Z,70.60
2018-02-10T00:09:06.735Z,67.37
2018-02-10T00:11:34.284Z,71.80
2018-02-10T00:14:02.602Z,75.43
2018-02-10T00:16:30.183Z,72.60
2018-02-10T00:18:57.731Z,73.33
2018-02-10T00:21:25.291Z,76.77
2018-02-10T00:23:52.864Z,74.53
2018-02-10T00:26:20.420Z,74.83
2018-02-10T00:28:48.005Z,72.77
2018-02-10T00:31:15.555Z,72.33
2018-02-10T00:33:43.095Z,77.23
2018-02-10T00:36:10.655Z,73.60
2018-02-10T00:38:38.203Z,71.23
2018-02-10T00:41:05.786Z,67.00
2018-02-10T00:43:33.335Z,69.13
2018-02-10T00:46:00.908Z,69.80
2018-02-10T00:48:28.458Z,62.07
2018-02-10T00:50:55.998Z,74.47
2018-02-10T00:53:23.567Z,74.30
2018-02-10T00:55:51.111Z,70.93
2018-02-10T00:58:18.675Z,64.20
2018-02-10T01:00:46.231Z,71.87
2018-02-10T01:03:13.778Z,82.40
2018-02-10T01:05:41.341Z,75.47
2018-02-10T01:08:08.889Z,74.00
2018-02-10T01:10:36.466Z,68.67
2018-02-10T01:13:04.012Z,60.10
2018-02-10T01:15:31.567Z,75.87
2018-02-10T01:17:59.142Z,67.10
2018-02-10T01:20:26.682Z,73.57
2018-02-10T01:22:54.239Z,72.87
2018-02-10T01:25:22.550Z,79.93
2018-02-10T01:27:50.133Z,65.83
2018-02-10T01:30:17.717Z,68.90
2018-02-10T01:32:45.258Z,66.47
2018-02-10T01:35:12.814Z,69.13
2018-02-10T01:37:40.359Z,73.73
2018-02-10T01:40:07.902Z,71.90
2018-02-10T01:42:35.470Z,74.57
2018-02-10T01:45:03.231Z,74.87
2018-02-10T01:47:30.776Z,69.53
2018-02-10T01:50:10.280Z,75.00
2018-02-10T01:52:37.824Z,69.50
2018-02-10T01:55:05.408Z,67.03
2018-02-10T01:57:33.837Z,68.83
2018-02-10T02:00:01.387Z,69.80
2018-02-10T02:02:28.938Z,63.60
2018-02-10T02:04:56.483Z,68.63
2018-02-10T02:07:24.802Z,70.83
2018-02-10T02:09:52.349Z,66.37
2018-02-10T02:12:19.919Z,65.83
2018-02-10T02:14:47.478Z,71.53
2018-02-10T02:17:15.050Z,68.33
2018-02-10T02:19:42.600Z,74.13
2018-02-10T02:22:10.148Z,72.00
2018-02-10T02:24:37.727Z,66.80
2018-02-10T02:27:05.282Z,73.50
2018-02-10T02:29:32.850Z,66.63
2018-02-10T02:32:00.394Z,67.40
2018-02-10T02:34:27.949Z,77.43
2018-02-10T02:36:55.519Z,66.60
2018-02-10T02:39:23.070Z,67.77
2018-02-10T02:41:50.635Z,74.30
2018-02-10T02:44:18.191Z,72.83
2018-02-10T02:46:45.742Z,77.83
2018-02-10T02:49:13.322Z,68.10
2018-02-10T02:51:40.875Z,65.73
2018-02-10T02:54:08.425Z,62.50
2018-02-10T02:56:36.002Z,67.03
2018-02-10T02:59:03.558Z,61.97
2018-02-10T03:01:33.080Z,63.33
2018-02-10T03:04:00.622Z,67.87
2018-02-10T03:06:28.168Z,60.27
2018-02-10T03:08:55.711Z,72.00
2018-02-10T03:11:23.255Z,65.03
2018-02-10T03:13:50.828Z,67.13
2018-02-10T03:16:29.156Z,70.37
2018-02-10T03:18:56.724Z,66.70
2018-02-10T03:21:24.279Z,64.87
2018-02-10T03:23:51.826Z,61.67
2018-02-10T03:26:20.135Z,67.60
2018-02-10T03:28:47.692Z,67.90
2018-02-10T03:31:15.271Z,70.13
2018-02-10T03:33:42.830Z,63.43
2018-02-10T03:36:10.376Z,69.67
2018-02-10T03:38:37.942Z,61.50
2018-02-10T03:41:05.534Z,62.67
2018-02-10T03:43:33.082Z,60.93
2018-02-10T03:46:00.635Z,63.33
2018-02-10T03:48:28.184Z,62.20
2018-02-10T03:50:59.648Z,66.97
2018-02-10T03:53:27.221Z,73.70
2018-02-10T03:55:54.774Z,64.07
2018-02-10T03:58:22.359Z,61.53
2018-02-10T04:00:50.674Z,64.13
2018-02-10T04:03:18.222Z,58.97
2018-02-10T04:05:45.764Z,60.33
2018-02-10T04:08:14.081Z,69.93
2018-02-10T04:10:41.652Z,66.17
2018-02-10T04:13:09.205Z,65.40
2018-02-10T04:15:36.751Z,65.90
2018-02-10T04:18:04.316Z,62.23
2018-02-10T04:20:31.859Z,67.90
2018-02-10T04:22:59.436Z,70.80
2018-02-10T04:25:26.982Z,68.30
2018-02-10T04:27:54.545Z,68.80
2018-02-10T04:30:22.090Z,68.20
2018-02-10T04:32:50.421Z,68.83
2018-02-10T04:35:18.747Z,58.70
2018-02-10T04:37:47.059Z,64.60
2018-02-10T04:40:14.673Z,53.03
2018-02-10T04:42:42.998Z,65.10
2018-02-10T04:45:10.576Z,69.97
2018-02-10T04:47:38.123Z,69.00
2018-02-10T04:50:05.669Z,69.13
2018-02-10T04:52:33.248Z,65.50
2018-02-10T04:55:00.794Z,67.77
2018-02-10T04:57:28.353Z,66.50
2018-02-10T04:59:55.903Z,73.60
2018-02-10T05:02:23.445Z,70.27
2018-02-10T05:04:51.026Z,67.70
2018-02-10T05:07:18.578Z,67.03
2018-02-10T05:09:49.863Z,67.20
2018-02-10T05:12:17.402Z,74.93
2018-02-10T05:14:44.952Z,65.30
2018-02-10T05:17:12.497Z,65.90
2018-02-10T05:19:40.044Z,62.27
2018-02-10T05:22:08.386Z,59.10
2018-02-10T05:24:35.940Z,63.90
2018-02-10T05:27:03.491Z,62.13
2018-02-10T05:29:31.059Z,70.70
2018-02-10T05:31:58.608Z,65.93
2018-02-10T05:34:26.179Z,64.40
2018-02-10T05:36:53.722Z,64.77
2018-02-10T05:39:22.291Z,68.87
2018-02-10T05:41:49.843Z,64.20
2018-02-10T05:44:17.409Z,58.60
2018-02-10T05:46:45.006Z,61.13
2018-02-10T05:49:12.553Z,72.10
2018-02-10T05:51:40.159Z,61.90
2018-02-10T05:54:08.462Z,61.83
2018-02-10T05:56:36.006Z,62.03
2018-02-10T05:59:04.321Z,72.50
2018-02-10T06:01:31.863Z,64.30
2018-02-10T06:03:59.435Z,62.40
2018-02-10T06:06:26.978Z,59.73
2018-02-10T06:08:54.536Z,61.20
2018-02-10T06:11:22.093Z,64.07
2018-02-10T06:13:50.407Z,68.30
2018-02-10T06:16:21.715Z,72.27
2018-02-10T06:18:49.264Z,69.13
2018-02-10T06:21:16.838Z,61.60
2018-02-10T06:23:45.150Z,62.90
2018-02-10T06:26:12.715Z,56.17
2018-02-10T06:28:40.298Z,61.93
2018-02-10T06:31:07.846Z,60.90
2018-02-10T06:33:35.399Z,66.87
2018-02-10T06:36:03.716Z,60.83
2018-02-10T06:38:31.267Z,62.83
2018-02-10T06:40:58.850Z,58.30
2018-02-10T06:43:27.174Z,66.07
2018-02-10T06:45:54.760Z,64.67
2018-02-10T06:48:22.316Z,61.90
2018-02-10T06:50:49.871Z,59.07
2018-02-10T06:53:17.462Z,56.80
2018-02-10T06:55:45.810Z,62.60
2018-02-10T06:58:13.446Z,58.60
2018-02-10T07:00:41.108Z,63.83
2018-02-10T07:03:08.683Z,58.70
2018-02-10T07:05:36.231Z,57.80
2018-02-10T07:08:03.781Z,57.73
2018-02-10T07:10:31.363Z,56.40
2018-02-10T07:12:59.682Z,60.03
2018-02-10T07:15:28.002Z,65.07
2018-02-10T07:17:55.580Z,63.17
2018-02-10T07:20:23.142Z,61.27
2018-02-10T07:22:50.731Z,55.87
2018-02-10T07:25:26.297Z,55.37
2018-02-10T07:27:54.645Z,57.77
2018-02-10T07:30:22.211Z,54.97
2018-02-10T07:32:49.781Z,59.67
2018-02-10T07:35:17.341Z,60.60
2018-02-10T07:37:44.911Z,62.63
2018-02-10T07:40:12.499Z,61.30
2018-02-10T07:42:40.062Z,51.13
2018-02-10T07:45:07.612Z,58.73
2018-02-10T07:47:35.168Z,65.10
2018-02-10T07:50:02.718Z,66.33
2018-02-10T07:52:31.062Z,59.70
2018-02-10T07:54:58.607Z,62.50
2018-02-10T07:57:26.178Z,63.15
2018-02-10T07:59:53.732Z,61.33
2018-02-10T08:02:21.289Z,60.60
2018-02-10T08:04:48.856Z,71.13
2018-02-10T08:07:16.399Z,67.07
2018-02-10T08:09:43.952Z,74.70
2018-02-10T08:12:11.514Z,65.57
2018-02-10T08:14:44.299Z,71.67
2018-02-10T08:17:11.866Z,70.27
2018-02-10T08:19:39.467Z,67.43
2018-02-10T08:22:07.043Z,71.10
2018-02-10T08:24:35.401Z,69.10
2018-02-10T08:27:02.972Z,77.63
2018-02-10T08:29:31.311Z,71.13
2018-02-10T08:32:04.085Z,75.53
2018-02-10T08:34:31.683Z,73.60
2018-02-10T08:37:00.007Z,74.13
2018-02-10T08:39:27.546Z,76.53
2018-02-10T08:41:55.933Z,70.23
2018-02-10T08:44:23.501Z,73.23
2018-02-10T08:46:52.081Z,73.20
2018-02-10T08:49:19.800Z,76.93
2018-02-10T08:51:47.339Z,74.37
2018-02-10T08:54:15.306Z,68.53
2018-02-10T08:56:42.886Z,73.97
2018-02-10T08:59:11.429Z,64.63
2018-02-10T09:01:40.002Z,71.90
2018-02-10T09:04:07.593Z,64.57
2018-02-10T09:06:36.150Z,63.17
2018-02-10T09:09:07.512Z,66.53
2018-02-10T09:11:35.066Z,67.83
2018-02-10T09:14:03.577Z,68.90
2018-02-10T09:16:31.126Z,60.97
2018-02-10T09:18:58.733Z,65.30
2018-02-10T09:21:27.064Z,63.60
2018-02-10T09:23:54.643Z,62.93
2018-02-10T09:26:22.198Z,71.07
2018-02-10T09:28:49.754Z,68.97
2018-02-10T09:31:17.335Z,62.63
2018-02-10T09:33:44.891Z,62.97
2018-02-10T09:36:12.468Z,64.70
2018-02-10T09:38:40.802Z,62.03
2018-02-10T09:41:08.373Z,63.93
2018-02-10T09:43:35.930Z,61.67
2018-02-10T09:46:03.491Z,62.77
2018-02-10T09:48:31.043Z,63.50
2018-02-10T09:50:58.589Z,66.50
2018-02-10T09:53:26.197Z,60.90
2018-02-10T09:55:53.765Z,67.17
2018-02-10T09:58:21.319Z,63.70
2018-02-10T10:00:48.870Z,58.07
2018-02-10T10:03:16.414Z,55.80
2018-02-10T10:05:43.995Z,59.53
2018-02-10T10:08:11.571Z,60.80
2018-02-10T10:10:39.951Z,54.23
2018-02-10T10:13:08.268Z,53.17
2018-02-10T10:15:35.828Z,57.20
2018-02-10T10:18:03.378Z,60.43
2018-02-10T10:20:30.939Z,56.30
2018-02-10T10:22:58.518Z,57.47
2018-02-10T10:25:26.080Z,53.83
2018-02-10T10:27:53.714Z,57.10
2018-02-10T10:30:21.271Z,55.07
2018-02-10T10:33:05.267Z,55.43
2018-02-10T10:35:32.822Z,54.00
2018-02-10T10:38:00.384Z,54.87
2018-02-10T10:40:28.004Z,55.23
2018-02-10T10:42:55.573Z,55.63
2018-02-10T10:45:23.127Z,51.07
2018-02-10T10:47:50.738Z,55.23
2018-02-10T10:50:18.284Z,51.13
2018-02-10T10:52:45.880Z,45.40
2018-02-10T10:55:14.197Z,48.40
2018-02-10T10:57:41.758Z,50.07
2018-02-10T11:00:09.320Z,48.07
2018-02-10T11:02:36.870Z,46.67
2018-02-10T11:05:04.451Z,47.07
2018-02-10T11:07:31.995Z,46.30
2018-02-10T11:09:59.543Z,48.10
2018-02-10T11:12:27.088Z,50.77
2018-02-10T11:14:55.408Z,54.80
2018-02-10T11:17:22.978Z,51.73
2018-02-10T11:19:52.585Z,50.00
2018-02-10T11:22:20.142Z,53.83
2018-02-10T11:25:00.203Z,40.97
2018-02-10T11:27:31.261Z,53.20
2018-02-10T11:30:20.823Z,45.13
2018-02-10T11:32:48.369Z,41.80
2018-02-10T11:35:16.731Z,39.83
2018-02-10T11:37:44.278Z,32.67
2018-02-10T11:40:11.838Z,32.07
2018-02-10T11:42:39.401Z,31.60
2018-02-10T11:45:07.883Z,32.30
2018-02-10T11:47:36.379Z,34.97
2018-02-10T11:50:03.951Z,38.70
2018-02-10T11:52:31.496Z,37.50
2018-02-10T11:54:59.056Z,28.30
2018-02-10T11:57:31.522Z,29.77
2018-02-10T11:59:59.083Z,29.83
2018-02-10T12:02:26.734Z,29.40
2018-02-10T12:05:00.131Z,29.13
2018-02-10T12:07:27.695Z,26.93
2018-02-10T12:10:01.835Z,31.43
2018-02-10T12:12:29.385Z,24.10
2018-02-10T12:14:56.927Z,29.00
2018-02-10T12:17:24.473Z,29.00
2018-02-10T12:19:52.779Z,26.00
2018-02-10T12:22:20.342Z,26.17
2018-02-10T12:24:47.894Z,25.47
2018-02-10T12:27:15.450Z,27.17
2018-02-10T12:29:43.023Z,26.90
2018-02-10T12:32:10.567Z,25.83
2018-02-10T12:34:54.793Z,26.17
2018-02-10T12:37:23.107Z,27.00
2018-02-10T12:39:50.679Z,27.10
2018-02-10T12:42:18.214Z,27.57
2018-02-10T12:44:45.759Z,30.23
2018-02-10T12:47:14.106Z,28.70
2018-02-10T12:49:42.432Z,25.90
2018-02-10T12:52:09.978Z,24.77
2018-02-10T12:54:38.308Z,27.23
2018-02-10T12:57:05.938Z,29.87
2018-02-10T12:59:33.545Z,26.73
2018-02-10T13:02:01.107Z,27.90
2018-02-10T13:04:28.690Z,26.47
2018-02-10T13:06:57.111Z,22.17
2018-02-10T13:09:24.665Z,20.40
2018-02-10T13:11:52.212Z,22.33
2018-02-10T13:14:39.800Z,18.57
2018-02-10T13:17:26.408Z,20.63
2018-02-10T13:19:58.006Z,22.00
2018-02-10T13:22:27.554Z,20.40
2018-02-10T13:24:56.094Z,19.40
2018-02-10T13:27:23.671Z,16.67
2018-02-10T13:29:51.218Z,18.27
2018-02-10T13:32:18.762Z,21.27
2018-02-10T13:34:47.094Z,24.83
2018-02-10T13:37:14.670Z,24.47
2018-02-10T13:39:42.260Z,27.33
2018-02-10T13:42:09.851Z,28.10
2018-02-10T13:44:50.163Z,24.83
2018-02-10T13:47:22.189Z,22.27
2018-02-10T13:49:51.486Z,30.43
2018-02-10T13:52:19.025Z,28.17
2018-02-10T13:54:47.503Z,26.37
2018-02-10T13:57:15.920Z,28.90
2018-02-10T13:59:47.046Z,27.47
2018-02-10T14:02:14.615Z,28.63
2018-02-10T14:04:42.157Z,25.43
2018-02-10T14:07:20.272Z,25.80
2018-02-10T14:09:53.997Z,30.20
2018-02-10T14:12:21.615Z,33.50
2018-02-10T14:14:51.125Z,31.07
2018-02-10T14:17:18.677Z,34.63
2018-02-10T14:19:47.617Z,35.03
2018-02-10T14:22:16.664Z,36.43
2018-02-10T14:24:45.008Z,38.63
2018-02-10T14:27:12.551Z,33.47
2018-02-10T14:29:51.036Z,42.73
2018-02-10T14:32:18.614Z,40.20
2018-02-10T14:34:47.174Z,38.23
2018-02-10T14:37:14.738Z,39.73
2018-02-10T14:39:42.279Z,43.07
2018-02-10T14:42:10.826Z,37.67
2018-02-10T14:44:38.377Z,34.67
2018-02-10T14:47:14.225Z,29.33
2018-02-10T14:49:42.813Z,32.30
2018-02-10T14:52:10.402Z,36.07
2018-02-10T14:54:37.950Z,31.80
2018-02-10T14:57:05.532Z,31.87
2018-02-10T14:59:33.855Z,28.00
2018-02-10T15:02:01.394Z,28.93
2018-02-10T15:04:45.583Z,31.40
2018-02-10T15:07:13.154Z,29.10
2018-02-10T15:09:43.879Z,32.63
2018-02-10T15:12:11.400Z,28.17
2018-02-10T15:14:38.992Z,31.37
2018-02-10T15:17:07.405Z,31.33
2018-02-10T15:19:34.967Z,31.37
2018-02-10T15:22:03.281Z,30.53
2018-02-10T15:24:30.877Z,30.73
2018-02-10T15:26:59.251Z,27.23
2018-02-10T15:29:32.870Z,33.57
2018-02-10T15:32:12.371Z,31.60
2018-02-10T15:34:49.891Z,34.70
2018-02-10T15:37:17.435Z,31.33
2018-02-10T15:39:44.987Z,33.77
2018-02-10T15:42:12.654Z,28.10
2018-02-10T15:44:45.625Z,33.60
2018-02-10T15:47:13.411Z,34.13
2018-02-10T15:49:41.746Z,30.77
2018-02-10T15:52:10.063Z,39.00
2018-02-10T15:54:37.658Z,34.00
2018-02-10T15:57:05.232Z,31.80
2018-02-10T15:59:32.825Z,33.27
2018-02-10T16:02:00.403Z,35.20
2018-02-10T16:04:27.956Z,31.37
2018-02-10T16:06:55.535Z,34.63
2018-02-10T16:09:27.303Z,33.03
2018-02-10T16:11:55.618Z,31.70
2018-02-10T16:14:27.742Z,33.03
2018-02-10T16:16:56.311Z,37.27
2018-02-10T16:19:23.883Z,32.27
2018-02-10T16:21:51.442Z,35.03
2018-02-10T16:24:19.005Z,39.13
2018-02-10T16:26:46.592Z,31.23
2018-02-10T16:29:14.138Z,32.27
2018-02-10T16:31:47.496Z,30.73
2018-02-10T16:34:15.034Z,32.10
2018-02-10T16:36:43.348Z,35.40
2018-02-10T16:39:10.894Z,34.70
2018-02-10T16:41:38.468Z,33.90
2018-02-10T16:44:06.042Z,32.50
2018-02-10T16:46:33.587Z,28.47
2018-02-10T16:49:01.127Z,30.13
2018-02-10T16:51:28.671Z,34.50
2018-02-10T16:53:56.998Z,29.43
2018-02-10T16:56:24.594Z,34.43
2018-02-10T16:58:52.925Z,34.00
2018-02-10T17:01:20.470Z,31.43
2018-02-10T17:03:52.852Z,29.73
2018-02-10T17:06:20.404Z,31.67
2018-02-10T17:08:47.954Z,32.37
2018-02-10T17:11:15.549Z,32.80
2018-02-10T17:13:44.048Z,36.20
2018-02-10T17:16:12.181Z,36.30
2018-02-10T17:18:43.149Z,32.70
2018-02-10T17:21:10.703Z,32.17
2018-02-10T17:23:38.252Z,30.27
2018-02-10T17:26:05.820Z,33.37
2018-02-10T17:28:33.369Z,34.47
2018-02-10T17:31:00.934Z,30.33
2018-02-10T17:33:28.471Z,31.27
2018-02-10T17:35:56.050Z,32.53
2018-02-10T17:38:23.608Z,27.43
2018-02-10T17:40:51.187Z,29.63
2018-02-10T17:43:18.733Z,30.30
2018-02-10T17:45:46.310Z,33.10
2018-02-10T17:48:13.863Z,27.10
2018-02-10T17:50:41.414Z,26.13
2018-02-10T17:53:08.991Z,29.57
2018-02-10T17:55:36.578Z,26.57
2018-02-10T17:58:04.149Z,30.03
2018-02-10T18:00:31.703Z,36.33
2018-02-10T18:02:59.263Z,28.47
2018-02-10T18:05:27.621Z,27.53
2018-02-10T18:07:55.182Z,30.83
2018-02-10T18:10:22.764Z,30.97
2018-02-10T18:13:01.200Z,33.83
2018-02-10T18:15:28.746Z,28.17
2018-02-10T18:17:56.319Z,27.37
2018-02-10T18:20:24.635Z,28.67
2018-02-10T18:22:52.174Z,27.87
2018-02-10T18:25:19.718Z,28.90
2018-02-10T18:27:48.019Z,29.67
2018-02-10T18:30:15.595Z,29.97
2018-02-10T18:32:43.156Z,27.37
2018-02-10T18:35:10.692Z,25.50
2018-02-10T18:37:38.242Z,24.87
2018-02-10T18:40:05.831Z,25.07
2018-02-10T18:42:33.380Z,24.30
2018-02-10T18:45:00.943Z,23.40
2018-02-10T18:47:31.776Z,26.03
2018-02-10T18:49:59.324Z,24.60
2018-02-10T18:52:26.866Z,27.30
2018-02-10T18:54:55.166Z,25.90
2018-02-10T18:57:22.708Z,24.60
2018-02-10T18:59:51.032Z,24.33
2018-02-10T19:02:18.570Z,44.33
2018-02-10T19:04:46.114Z,52.67
2018-02-10T19:07:13.676Z,34.40
2018-02-10T19:09:41.258Z,30.90
2018-02-10T19:12:08.807Z,25.90
2018-02-10T19:14:36.376Z,27.97
2018-02-10T19:17:03.926Z,31.27
2018-02-10T19:19:32.477Z,34.83
2018-02-10T19:22:00.796Z,33.27
2018-02-10T19:24:36.825Z,32.40
2018-02-10T19:27:05.158Z,30.13
2018-02-10T19:29:32.729Z,30.93
2018-02-10T19:32:02.319Z,29.00
2018-02-10T19:34:29.909Z,29.30
2018-02-10T19:36:57.518Z,28.57
2018-02-10T19:39:25.069Z,25.73
2018-02-10T19:41:52.610Z,25.53
2018-02-10T19:44:20.977Z,27.20
2018-02-10T19:46:48.554Z,26.37
2018-02-10T19:49:16.870Z,27.20
2018-02-10T19:51:51.346Z,22.53
2018-02-10T19:54:36.739Z,24.70
2018-02-10T19:57:04.313Z,22.93
2018-02-10T19:59:31.889Z,22.40
2018-02-10T20:01:59.474Z,20.40
2018-02-10T20:04:27.013Z,23.33
2018-02-10T20:06:54.575Z,22.40
2018-02-10T20:09:22.114Z,23.13
2018-02-10T20:11:49.678Z,28.40
2018-02-10T20:14:17.229Z,22.50
2018-02-10T20:16:44.797Z,22.40
2018-02-10T20:19:19.643Z,20.70
2018-02-10T20:21:47.200Z,20.43
2018-02-10T20:24:14.783Z,20.97
2018-02-10T20:26:42.364Z,18.87
2018-02-10T20:29:10.910Z,20.40
2018-02-10T20:31:38.478Z,21.33
2018-02-10T20:34:18.685Z,18.80
2018-02-10T20:36:46.226Z,18.83
2018-02-10T20:39:17.754Z,19.83
2018-02-10T20:41:46.307Z,18.13
2018-02-10T20:44:13.875Z,19.37
2018-02-10T20:46:41.462Z,19.37
2018-02-10T20:49:09.002Z,19.53
2018-02-10T20:51:36.811Z,20.97
2018-02-10T20:54:04.353Z,19.30
2018-02-10T20:56:31.912Z,20.30
2018-02-10T20:58:59.463Z,20.30
2018-02-10T21:01:27.111Z,20.93
2018-02-10T21:03:54.710Z,19.53
2018-02-10T21:06:22.844Z,18.93
2018-02-10T21:08:50.399Z,19.00
2018-02-10T21:11:17.941Z,17.60
2018-02-10T21:16:39.341Z,19.33
2018-02-10T21:19:07.868Z,16.17
2018-02-10T21:21:35.423Z,19.97
2018-02-10T21:24:04.933Z,18.83
2018-02-10T21:26:32.477Z,20.13
2018-02-10T21:29:00.856Z,17.20
2018-02-10T21:31:31.101Z,16.40
2018-02-10T21:33:58.679Z,17.70
2018-02-10T21:36:42.947Z,16.77
2018-02-10T21:39:20.896Z,17.20
2018-02-10T21:41:52.787Z,16.47
2018-02-10T21:44:20.362Z,13.93
2018-02-10T21:46:47.913Z,14.33
2018-02-10T21:49:15.464Z,15.77
2018-02-10T21:51:43.012Z,14.57
2018-02-10T21:54:10.561Z,15.37
2018-02-10T21:56:51.346Z,16.23
2018-02-10T21:59:19.829Z,15.83
2018-02-10T22:01:47.394Z,15.80
2018-02-10T22:04:14.964Z,15.03
2018-02-10T22:06:42.510Z,16.30
2018-02-10T22:09:15.202Z,15.07
2018-02-10T22:11:42.749Z,15.23
2018-02-10T22:14:10.320Z,11.90
2018-02-10T22:16:37.879Z,17.00
2018-02-10T22:19:05.424Z,15.13
2018-02-10T22:21:32.965Z,14.90
2018-02-10T22:24:01.273Z,14.80
2018-02-10T22:26:28.826Z,13.60
2018-02-10T22:28:56.365Z,11.07
2018-02-10T22:31:24.716Z,13.10
2018-02-10T22:33:53.261Z,13.03
2018-02-10T22:36:20.827Z,15.43
2018-02-10T22:38:48.368Z,14.57
2018-02-10T22:41:15.927Z,17.60
2018-02-10T22:43:43.521Z,22.80
2018-02-10T22:46:11.826Z,22.37
2018-02-10T22:48:39.375Z,26.70
2018-02-10T22:51:06.913Z,20.07
2018-02-10T22:53:51.505Z,18.10
2018-02-10T22:56:19.051Z,14.97
2018-02-10T22:58:46.582Z,11.70
2018-02-10T23:01:17.079Z,14.70
2018-02-10T23:03:45.391Z,14.23
2018-02-10T23:06:12.935Z,14.47
2018-02-10T23:08:40.475Z,12.97
2018-02-10T23:11:08.832Z,17.80
2018-02-10T23:13:40.114Z,12.33
2018-02-10T23:16:07.670Z,15.33
2018-02-10T23:18:35.255Z,14.57
2018-02-10T23:21:02.813Z,16.07
2018-02-10T23:23:30.360Z,11.30
2018-02-10T23:25:57.909Z,12.90
2018-02-10T23:28:25.452Z,13.63
2018-02-10T23:30:53.782Z,15.33
2018-02-10T23:33:21.332Z,15.60
2018-02-10T23:35:48.879Z,15.73
2018-02-10T23:38:16.435Z,15.53
2018-02-10T23:40:43.994Z,15.30
2018-02-10T23:43:11.574Z,15.43
2018-02-10T23:45:58.611Z,13.70
2018-02-10T23:48:26.183Z,17.60
2018-02-10T23:50:53.733Z,15.30
2018-02-10T23:53:21.274Z,15.77
2018-02-10T23:55:48.814Z,17.50
2018-02-10T23:58:16.350Z,14.70
